Memanbetsu Airport
RJCM : now visible

Airfield :











YOU CAN JOIN US ON...

 
LOGIN :

Register | Disclaimer

   EN    FR    IT 

 









Legend :    VFR   Marginal VFR   IFR   Intensive IFR   Very Intensive IFR
Visi :
Ceiling :
>= 8 km
>= 3000ft
5 to 8 km
1000 to 3000 ft
1500m to 5 km
500 to 1000 ft
800 to 1500m
200 to 500 ft
< 800m
< 200 ft
Symbols :   Thunderstorms  Fog  Heavy snow  Heavy precipitations  Wind > 20 kt







- Airport Elevation : 135 ft
- IATA code : MMB


RJCM - Memanbetsu

METAR N/A
TAF TAF RJCM
Valid from the 20 at 18:00 until the 22 at 00:00 UTC


201713Z 2018/2200 06005KT 9999 FEW006 BKN015
TEMPO 2018/2100 3000 -SHSN FEW003 BKN006
BECMG 2103/2105 16012KT
BECMG 2109/2112 33008KT
TEMPO 2109/2115 1500 -SHSN FEW003 BKN005
TEMPO 2115/2121 2000 -SHSN FEW003 BKN005
RJJJ FIR / Asia



MET'MAP, your aeronautical weather chart ! - Copyright ORBIFLY December 2007 - Disclaimer

ORBIFLY MET'MAP TEAM :

Programming & Development : Alexandra Zaïnal
Concept & Development : Baudouin d'Aumeries
Co-Development & Prog : Marc-Olivier Méhu
Technical & hardware support : Manuel Goepfert

Contact : metmap@orbifly.com




SOURCES & CREDITS :

   NOAA       Earth
Advisory